Nome, AK (99762)

12:33 PM AKST on February 26, 2017 (GMT -0900)
Nome | | Change Station

Elev 36 ft 64.51 °N, 165.45 °W | Updated 40 minutes ago

Light Snow
Light Snow
25 °F
Feels Like 14 °F
N
12
Wind Variable Wind from SW

Today
High -- | Low -- °F
--% Chance of Precip.
Yesterday
High -- | Low -- °F
Precip. -- in
Pressure 30.14 in
Visibility 9.0 miles
Clouds Few 2700 ft
Scattered Clouds 4000 ft
Overcast 5500 ft
Windchill 14 °F
Dew Point 23 °F
Humidity 92%
Rainfall 0.00 in
Snow Depth Not available.
9:18 AM 7:11 PM
New Moon, 0% visible
METAR PAOM 262053Z 23010KT 9SM -SN FEW027 SCT040 OVC055 M04/M05 A3014 RMK SNB52 SLP207 P0000 60000 T10391050 53011 VIA AUTODIAL
Pressure 30.14 in
Visibility 9.0 miles
Clouds Few 2700 ft
Scattered Clouds 4000 ft
Overcast 5500 ft
Windchill 14 °F
Dew Point 23 °F
Humidity 92%
Rainfall 0.00 in
Snow Depth Not available.
9:18 AM 7:11 PM
New Moon, 0% visible
METAR PAOM 262053Z 23010KT 9SM -SN FEW027 SCT040 OVC055 M04/M05 A3014 RMK SNB52 SLP207 P0000 60000 T10391050 53011 VIA AUTODIAL

Get Your Daily Forecast Email!

Thanks for signing up!

Be on the lookout for a verification email in your inbox.

You'll start receiving the daily forecast at 8 AM.

×

10-Day Weather Forecast

Almanac

Astronomy

Feb. 26, 2017 Rise Set
Actual Time
Civil Twilight
Nautical Twilight
Astronomical Twilight
Moon
Length of Visible Light
Length of Day
Tomorrow will be .
, % of the Moon is Illuminated

Today's Extremes

State Highs State Lows

Community

WunderPhotos

Upload Photos

1,962,540 photos uploaded!

WunderBlog® & News

Nearby

Air Quality

  Air Quality AQ Index Pollutant
Not available.

Snow Depth

Station Depth Elevation

Earthquake Activity

City Distance Mag. Time & Date
Minimum magnitude displayed is 2.5.

Coastal Water Temperatures

Place Temperature

Stations

Nearby Weather Stations

Station Location Temp. Windchill Dew Point Humidity Wind Precip. Elev Updated Type
                   

Watches & Warnings

There are currently no watches in effect.